Terminal Aerodrome Forecast
Issued by NWS Charleston, WV

Current Version | Previous Version | Graphics & Text | Print | Product List | Glossary On
Versions: 1 2 3 4 5 6 7 8 9 10 11 12 13 14 15 16 17 18 19 20 21 22 23
463
FTUS41 KRLX 121749
TAFPKB
TAF
KPKB 121749Z 1218/1318 27006KT 6SM -SN OVC040
      TEMPO 1218/1221 4SM -SN BKN030
     FM122100 28010G19KT P6SM OVC050
     FM130200 30012G24KT 2SM -SHSN OVC015
     FM130500 32010G22KT P6SM -SHSN OVC025
     FM131400 33013G25KT P6SM -SHSN BKN035=

USA.gov is the U.S. government's official web portal to all federal, state and local government web resources and services.